createdAt,value
2018-10-21T00:02:11.390Z,6.70
2018-10-21T00:04:39.547Z,9.93
2018-10-21T00:07:07.716Z,10.77
2018-10-21T00:09:35.885Z,12.70
2018-10-21T00:12:04.081Z,15.50
2018-10-21T00:14:32.251Z,11.27
2018-10-21T00:17:00.440Z,10.67
2018-10-21T00:19:28.626Z,8.20
2018-10-21T00:21:56.819Z,9.13
2018-10-21T00:24:24.986Z,10.00
2018-10-21T00:26:53.156Z,8.77
2018-10-21T00:29:21.331Z,9.10
2018-10-21T00:31:49.522Z,9.07
2018-10-21T00:34:17.687Z,9.80
2018-10-21T00:36:45.871Z,8.10
2018-10-21T00:39:14.653Z,7.97
2018-10-21T00:41:43.366Z,11.63
2018-10-21T00:44:11.727Z,9.40
2018-10-21T00:46:39.942Z,10.50
2018-10-21T00:49:08.687Z,9.60
2018-10-21T00:51:36.922Z,8.43
2018-10-21T00:54:09.832Z,8.17
2018-10-21T00:56:38.342Z,9.20
2018-10-21T00:59:07.343Z,13.20
2018-10-21T01:01:35.516Z,7.63
2018-10-21T01:04:03.744Z,9.00
2018-10-21T01:06:32.267Z,8.07
2018-10-21T01:09:00.611Z,8.83
2018-10-21T01:11:28.802Z,6.87
2018-10-21T01:14:02.627Z,7.63
2018-10-21T01:16:30.799Z,8.67
2018-10-21T01:18:59.003Z,7.83
2018-10-21T01:21:27.166Z,9.27
2018-10-21T01:23:55.383Z,6.70
2018-10-21T01:26:23.567Z,7.50
2018-10-21T01:28:51.743Z,10.93
2018-10-21T01:31:19.929Z,8.70
2018-10-21T01:33:48.096Z,11.67
2018-10-21T01:36:16.431Z,7.27
2018-10-21T01:38:44.459Z,6.30
2018-10-21T01:41:12.671Z,8.30
2018-10-21T01:43:40.879Z,9.03
2018-10-21T01:46:09.091Z,8.47
2018-10-21T01:48:37.258Z,8.40
2018-10-21T01:51:05.479Z,6.83
2018-10-21T01:53:33.648Z,7.27
2018-10-21T01:56:01.817Z,6.23
2018-10-21T01:58:30.006Z,7.50
2018-10-21T02:00:58.583Z,6.23
2018-10-21T02:03:26.759Z,8.80
2018-10-21T02:05:54.963Z,8.20
2018-10-21T02:08:23.138Z,6.37
2018-10-21T02:10:51.340Z,7.43
2018-10-21T02:13:19.498Z,6.60
2018-10-21T02:15:47.696Z,6.13
2018-10-21T02:18:15.847Z,6.33
2018-10-21T02:20:44.043Z,7.83
2018-10-21T02:23:12.258Z,7.77
2018-10-21T02:25:40.430Z,8.17
2018-10-21T02:28:08.629Z,10.60
2018-10-21T02:30:36.844Z,9.67
2018-10-21T02:33:05.127Z,9.13
2018-10-21T02:35:33.268Z,9.13
2018-10-21T02:38:01.455Z,9.70
2018-10-21T02:41:40.601Z,8.40
2018-10-21T02:44:11.009Z,9.60
2018-10-21T02:46:39.818Z,8.20
2018-10-21T02:49:08.762Z,7.40
2018-10-21T02:51:36.959Z,7.33
2018-10-21T02:54:05.619Z,9.27
2018-10-21T02:56:33.784Z,8.03
2018-10-21T02:59:01.981Z,5.87
2018-10-21T03:01:30.188Z,7.50
2018-10-21T03:03:58.486Z,7.03
2018-10-21T03:06:26.659Z,7.37
2018-10-21T03:08:54.891Z,6.87
2018-10-21T03:11:23.076Z,5.80
2018-10-21T03:13:51.265Z,6.03
2018-10-21T03:16:19.464Z,8.23
2018-10-21T03:18:47.628Z,7.00
2018-10-21T03:21:15.893Z,10.20
2018-10-21T03:23:44.018Z,6.20
2018-10-21T03:26:12.234Z,6.03
2018-10-21T03:28:40.421Z,5.47
2018-10-21T03:31:08.607Z,8.43
2018-10-21T03:33:36.855Z,5.77
2018-10-21T03:36:05.025Z,6.50
2018-10-21T03:38:33.218Z,6.80
2018-10-21T03:41:01.400Z,9.53
2018-10-21T03:43:29.563Z,7.10
2018-10-21T03:45:57.759Z,7.30
2018-10-21T03:48:25.918Z,6.00
2018-10-21T03:50:54.114Z,5.80
2018-10-21T03:53:22.326Z,7.73
2018-10-21T03:55:50.499Z,6.83
2018-10-21T03:58:18.671Z,8.43
2018-10-21T04:00:46.863Z,5.93
2018-10-21T04:03:15.063Z,6.13
2018-10-21T04:05:43.241Z,7.80
2018-10-21T04:08:11.408Z,6.33
2018-10-21T04:10:39.596Z,5.50
2018-10-21T04:13:07.762Z,6.37
2018-10-21T04:15:35.978Z,5.30
2018-10-21T04:18:04.146Z,5.23
2018-10-21T04:20:32.338Z,6.10
2018-10-21T04:23:01.634Z,6.53
2018-10-21T04:25:30.925Z,5.73
2018-10-21T04:27:59.940Z,4.30
2018-10-21T04:30:43.146Z,6.63
2018-10-21T04:33:48.042Z,5.27
2018-10-21T04:36:19.247Z,7.17
2018-10-21T04:40:01.294Z,6.73
2018-10-21T04:42:29.461Z,5.03
2018-10-21T04:44:57.871Z,5.77
2018-10-21T04:47:26.050Z,6.07
2018-10-21T04:49:54.263Z,6.70
2018-10-21T04:52:22.722Z,6.77
2018-10-21T04:54:50.877Z,5.80
2018-10-21T04:57:19.131Z,6.73
2018-10-21T04:59:47.328Z,6.83
2018-10-21T05:02:15.512Z,9.10
2018-10-21T05:04:43.695Z,11.27
2018-10-21T05:07:11.932Z,8.93
2018-10-21T05:09:40.098Z,9.07
2018-10-21T05:12:08.306Z,7.77
2018-10-21T05:14:36.479Z,6.53
2018-10-21T05:17:04.912Z,10.73
2018-10-21T05:19:33.114Z,10.03
2018-10-21T05:22:01.296Z,7.77
2018-10-21T05:24:29.458Z,8.10
2018-10-21T05:26:57.646Z,8.43
2018-10-21T05:29:25.862Z,8.30
2018-10-21T05:31:54.027Z,8.20
2018-10-21T05:34:22.208Z,7.97
2018-10-21T05:36:50.386Z,7.90
2018-10-21T05:39:18.576Z,7.30
2018-10-21T05:41:46.751Z,8.63
2018-10-21T05:44:14.952Z,8.30
2018-10-21T05:46:45.712Z,9.47
2018-10-21T05:49:13.987Z,9.00
2018-10-21T05:51:43.371Z,9.80
2018-10-21T05:54:12.715Z,8.10
2018-10-21T05:56:42.596Z,9.00
2018-10-21T05:59:10.919Z,6.83
2018-10-21T06:01:39.847Z,7.73
2018-10-21T06:04:09.063Z,8.50
2018-10-21T06:06:37.242Z,8.03
2018-10-21T06:09:06.617Z,5.93
2018-10-21T06:11:34.810Z,5.87
2018-10-21T06:14:03.076Z,6.53
2018-10-21T06:16:36.466Z,8.30
2018-10-21T06:19:06.830Z,6.70
2018-10-21T06:21:35.104Z,7.27
2018-10-21T06:24:03.262Z,9.27
2018-10-21T06:26:31.462Z,6.37
2018-10-21T06:28:59.656Z,6.37
2018-10-21T06:31:27.812Z,8.20
2018-10-21T06:33:55.995Z,8.60
2018-10-21T06:36:24.190Z,9.17
2018-10-21T06:38:52.389Z,13.97
2018-10-21T06:41:20.607Z,12.73
2018-10-21T06:43:48.795Z,13.90
2018-10-21T06:46:17.007Z,17.77
2018-10-21T06:48:45.552Z,14.13
2018-10-21T06:51:13.812Z,13.43
2018-10-21T06:53:41.968Z,12.13
2018-10-21T06:56:10.155Z,9.60
2018-10-21T06:58:38.322Z,13.17
2018-10-21T07:01:06.720Z,11.63
2018-10-21T07:03:34.963Z,11.07
2018-10-21T07:06:16.922Z,10.90
2018-10-21T07:08:45.530Z,14.90
2018-10-21T07:11:14.027Z,12.17
2018-10-21T07:13:42.391Z,11.87
2018-10-21T07:16:10.992Z,13.23
2018-10-21T07:18:39.657Z,13.77
2018-10-21T07:21:07.885Z,13.80
2018-10-21T07:23:36.074Z,15.13
2018-10-21T07:26:04.687Z,17.07
2018-10-21T07:28:32.990Z,15.97
2018-10-21T07:31:01.116Z,17.10
2018-10-21T07:33:29.316Z,14.90
2018-10-21T07:35:57.759Z,16.27
2018-10-21T07:38:25.950Z,16.87
2018-10-21T07:40:54.305Z,16.93
2018-10-21T07:43:22.554Z,17.43
2018-10-21T07:45:50.772Z,17.50
2018-10-21T07:48:19.063Z,16.43
2018-10-21T07:50:47.314Z,13.17
2018-10-21T07:53:15.659Z,16.70
2018-10-21T07:55:43.913Z,16.27
2018-10-21T07:58:12.620Z,14.70
2018-10-21T08:00:40.816Z,12.70
2018-10-21T08:03:09.144Z,16.43
2018-10-21T08:05:48.939Z,13.73
2018-10-21T08:08:21.511Z,14.90
2018-10-21T08:10:49.773Z,13.23
2018-10-21T08:13:19.258Z,15.63
2018-10-21T08:15:47.452Z,16.07
2018-10-21T08:18:15.956Z,14.57
2018-10-21T08:20:45.518Z,17.57
2018-10-21T08:23:14.839Z,17.53
2018-10-21T08:25:44.051Z,18.43
2018-10-21T08:28:12.285Z,16.07
2018-10-21T08:30:40.469Z,15.87
2018-10-21T08:33:08.823Z,16.50
2018-10-21T08:35:37.050Z,14.63
2018-10-21T08:38:05.347Z,9.77
2018-10-21T08:40:33.592Z,12.03
2018-10-21T08:43:01.823Z,9.90
2018-10-21T08:45:30.037Z,12.53
2018-10-21T08:47:58.223Z,7.30
2018-10-21T08:50:26.676Z,8.17
2018-10-21T08:52:55.195Z,8.50
2018-10-21T08:55:23.610Z,7.90
2018-10-21T08:57:51.844Z,7.67
2018-10-21T09:00:20.592Z,7.23
2018-10-21T09:02:48.788Z,10.70
2018-10-21T09:05:18.714Z,10.90
2018-10-21T09:07:47.274Z,10.67
2018-10-21T09:10:16.566Z,9.93
2018-10-21T09:12:45.266Z,8.77
2018-10-21T09:15:15.221Z,8.03
2018-10-21T09:17:43.710Z,8.27
2018-10-21T09:20:13.936Z,6.63
2018-10-21T09:22:42.442Z,7.17
2018-10-21T09:25:11.722Z,5.30
2018-10-21T09:27:41.133Z,7.30
2018-10-21T09:30:11.221Z,7.37
2018-10-21T09:32:39.730Z,5.20
2018-10-21T09:35:10.473Z,5.30
2018-10-21T09:37:40.113Z,5.83
2018-10-21T09:40:10.703Z,6.27
2018-10-21T09:42:39.245Z,7.83
2018-10-21T09:45:09.162Z,8.17
2018-10-21T09:47:37.909Z,6.30
2018-10-21T09:50:06.747Z,6.20
2018-10-21T09:52:35.477Z,8.10
2018-10-21T09:55:04.117Z,7.17
2018-10-21T09:57:32.595Z,7.57
2018-10-21T10:00:01.079Z,4.97
2018-10-21T10:02:34.859Z,5.13
2018-10-21T10:05:03.444Z,7.03
2018-10-21T10:07:31.987Z,6.73
2018-10-21T10:10:00.527Z,7.00
2018-10-21T10:12:28.947Z,7.00
2018-10-21T10:14:57.382Z,6.83
2018-10-21T10:17:25.907Z,6.93
2018-10-21T10:19:54.248Z,6.10
2018-10-21T10:22:22.727Z,5.13
2018-10-21T10:24:51.142Z,6.33
2018-10-21T10:27:19.540Z,5.97
2018-10-21T10:29:47.964Z,5.47
2018-10-21T10:32:16.761Z,6.87
2018-10-21T10:34:45.396Z,5.27
2018-10-21T10:37:13.877Z,5.93
2018-10-21T10:39:42.329Z,5.20
2018-10-21T10:42:11.022Z,4.03
2018-10-21T10:44:39.911Z,5.33
2018-10-21T10:47:08.566Z,4.90
2018-10-21T10:49:37.292Z,4.00
2018-10-21T10:52:06.292Z,4.97
2018-10-21T10:54:34.611Z,6.40
2018-10-21T10:57:03.035Z,4.80
2018-10-21T10:59:31.532Z,5.37
2018-10-21T11:02:00.017Z,5.63
2018-10-21T11:04:28.511Z,4.40
2018-10-21T11:06:56.998Z,6.60
2018-10-21T11:09:25.484Z,4.37
2018-10-21T11:11:53.892Z,4.67
2018-10-21T11:14:22.417Z,4.10
2018-10-21T11:16:50.859Z,4.50
2018-10-21T11:19:22.327Z,4.33
2018-10-21T11:21:50.926Z,3.93
2018-10-21T11:24:19.350Z,3.70
2018-10-21T11:26:47.950Z,5.13
2018-10-21T11:29:16.675Z,3.97
2018-10-21T11:31:45.378Z,3.77
2018-10-21T11:34:14.015Z,5.90
2018-10-21T11:36:42.566Z,4.70
2018-10-21T11:39:11.212Z,3.87
2018-10-21T11:41:39.575Z,4.80
2018-10-21T11:44:08.007Z,5.13
2018-10-21T11:46:36.512Z,3.93
2018-10-21T11:49:04.948Z,4.00
2018-10-21T11:51:33.428Z,4.43
2018-10-21T11:54:01.872Z,4.77
2018-10-21T11:56:30.378Z,4.83
2018-10-21T11:58:58.843Z,5.10
2018-10-21T12:01:27.255Z,7.37
2018-10-21T12:03:55.729Z,4.33
2018-10-21T12:06:24.127Z,5.63
2018-10-21T12:08:52.524Z,5.60
2018-10-21T12:11:21.000Z,6.03
2018-10-21T12:13:49.460Z,5.87
2018-10-21T12:16:20.865Z,5.33
2018-10-21T12:18:49.218Z,5.33
2018-10-21T12:21:17.674Z,5.53
2018-10-21T12:23:46.117Z,4.33
2018-10-21T12:26:14.641Z,5.30
2018-10-21T12:28:43.192Z,7.40
2018-10-21T12:31:11.710Z,9.43
2018-10-21T12:33:43.108Z,6.87
2018-10-21T12:36:13.616Z,5.57
2018-10-21T12:38:42.259Z,5.17
2018-10-21T12:41:11.851Z,7.80
2018-10-21T12:43:40.919Z,6.90
2018-10-21T12:46:09.372Z,4.47
2018-10-21T12:48:39.429Z,4.20
2018-10-21T12:51:08.036Z,6.63
2018-10-21T12:53:36.638Z,7.23
2018-10-21T12:56:08.998Z,6.27
2018-10-21T12:58:38.017Z,4.97
2018-10-21T13:01:06.734Z,7.40
2018-10-21T13:03:35.280Z,7.87
2018-10-21T13:06:03.993Z,6.20
2018-10-21T13:08:32.537Z,5.87
2018-10-21T13:11:01.024Z,4.63
2018-10-21T13:13:43.337Z,4.50
2018-10-21T13:16:24.762Z,4.87
2018-10-21T13:19:06.497Z,4.87
2018-10-21T13:21:48.251Z,4.70
2018-10-21T13:24:33.476Z,5.07
2018-10-21T13:27:26.159Z,6.90
2018-10-21T13:30:07.042Z,4.20
2018-10-21T13:32:45.425Z,5.60
2018-10-21T13:35:19.332Z,7.53
2018-10-21T13:37:53.149Z,6.17
2018-10-21T13:40:30.958Z,4.90
2018-10-21T13:43:07.806Z,5.20
2018-10-21T13:45:44.287Z,5.00
2018-10-21T13:48:22.995Z,5.27
2018-10-21T13:50:58.385Z,3.83
2018-10-21T13:53:44.038Z,6.63
2018-10-21T13:56:29.748Z,4.93
2018-10-21T13:59:07.089Z,5.77
2018-10-21T14:01:43.845Z,6.70
2018-10-21T14:04:17.126Z,4.70
2018-10-21T14:06:48.625Z,5.57
2018-10-21T14:09:18.538Z,4.80
2018-10-21T14:11:49.502Z,4.90
2018-10-21T14:14:28.165Z,5.03
2018-10-21T14:17:03.199Z,5.43
2018-10-21T14:19:35.256Z,5.47
2018-10-21T14:22:06.845Z,8.57
2018-10-21T14:24:39.942Z,30.10
2018-10-21T14:27:13.650Z,20.20
2018-10-21T14:29:45.034Z,10.43
2018-10-21T14:32:15.150Z,6.93
2018-10-21T14:34:44.585Z,6.07
2018-10-21T14:37:40.209Z,6.10
2018-10-21T14:40:27.907Z,5.40
2018-10-21T14:46:00.568Z,6.13
2018-10-21T14:48:39.270Z,7.47
2018-10-21T14:51:13.854Z,7.47
2018-10-21T14:53:47.436Z,5.33
2018-10-21T14:56:29.069Z,5.60
2018-10-21T14:59:13.065Z,7.37
2018-10-21T15:01:44.027Z,6.60
2018-10-21T15:04:23.990Z,7.50
2018-10-21T15:06:55.315Z,8.67
2018-10-21T15:13:09.018Z,13.90
2018-10-21T15:15:47.879Z,11.80
2018-10-21T15:18:33.474Z,9.63
2018-10-21T15:21:13.095Z,14.63
2018-10-21T15:23:50.320Z,9.90
2018-10-21T15:26:29.937Z,8.80
2018-10-21T15:29:05.984Z,8.13
2018-10-21T15:37:24.180Z,12.33
2018-10-21T15:45:44.025Z,23.47
2018-10-21T15:48:17.831Z,17.63
2018-10-21T15:50:57.397Z,15.23
2018-10-21T15:53:27.851Z,13.83
2018-10-21T16:02:09.871Z,18.80
2018-10-21T16:04:53.596Z,13.97
2018-10-21T16:07:27.883Z,11.83
2018-10-21T16:12:49.661Z,9.07
2018-10-21T16:15:42.966Z,11.17
2018-10-21T16:18:36.035Z,11.77
2018-10-21T16:25:12.836Z,9.07
2018-10-21T16:28:17.598Z,7.40
2018-10-21T16:33:58.780Z,9.80
2018-10-21T16:40:21.068Z,12.43
2018-10-21T16:52:19.116Z,11.87
2018-10-21T17:01:23.093Z,11.87
2018-10-21T17:03:51.455Z,10.83
2018-10-21T17:06:19.613Z,7.60
2018-10-21T17:08:48.194Z,8.00
2018-10-21T17:11:16.908Z,7.43
2018-10-21T17:13:46.115Z,10.23
2018-10-21T17:16:15.598Z,12.43
2018-10-21T17:18:44.048Z,12.20
2018-10-21T17:21:12.463Z,10.70
2018-10-21T17:23:41.409Z,10.53
2018-10-21T17:26:09.881Z,15.33
2018-10-21T17:28:38.567Z,29.50
2018-10-21T17:31:07.927Z,142.13
2018-10-21T17:33:36.347Z,164.63
2018-10-21T17:36:05.560Z,108.97
2018-10-21T17:38:34.003Z,81.30
2018-10-21T17:41:03.408Z,54.07
2018-10-21T17:43:32.624Z,29.87
2018-10-21T17:46:01.202Z,25.33
2018-10-21T17:48:29.853Z,26.73
2018-10-21T17:50:58.389Z,22.97
2018-10-21T17:53:27.309Z,27.90
2018-10-21T17:55:56.096Z,26.30
2018-10-21T17:58:25.086Z,14.73
2018-10-21T18:00:53.749Z,13.83
2018-10-21T18:03:22.300Z,12.53
2018-10-21T18:05:58.181Z,11.67
2018-10-21T18:08:26.962Z,10.97
2018-10-21T18:10:56.131Z,9.60
2018-10-21T18:13:25.407Z,9.67
2018-10-21T18:15:54.454Z,11.10
2018-10-21T18:18:22.911Z,7.80
2018-10-21T18:20:51.408Z,8.20
2018-10-21T18:23:19.947Z,9.63
2018-10-21T18:25:48.380Z,10.60
2018-10-21T18:28:16.851Z,14.30
2018-10-21T18:30:45.695Z,10.80
2018-10-21T18:33:14.262Z,11.30
2018-10-21T18:35:42.736Z,10.50
2018-10-21T18:38:13.230Z,14.87
2018-10-21T18:40:41.706Z,11.83
2018-10-21T18:43:10.180Z,9.03
2018-10-21T18:45:38.619Z,7.30
2018-10-21T18:48:07.723Z,9.97
2018-10-21T18:50:36.129Z,7.67
2018-10-21T18:53:05.888Z,9.40
2018-10-21T18:55:34.342Z,8.07
2018-10-21T18:58:02.891Z,8.07
2018-10-21T19:00:31.308Z,6.17
2018-10-21T19:02:59.692Z,6.00
2018-10-21T19:05:28.195Z,6.63
2018-10-21T19:07:57.230Z,6.87
2018-10-21T19:10:25.620Z,5.90
2018-10-21T19:13:00.047Z,9.70
2018-10-21T19:15:22.792Z,8.00
2018-10-21T19:17:51.183Z,8.00
2018-10-21T19:20:19.681Z,7.20
2018-10-21T19:22:48.157Z,8.57
2018-10-21T19:25:17.425Z,7.90
2018-10-21T19:27:47.016Z,7.10
2018-10-21T19:30:16.259Z,8.87
2018-10-21T19:32:46.502Z,10.20
2018-10-21T19:35:16.217Z,8.00
2018-10-21T19:37:44.590Z,8.83
2018-10-21T19:40:14.397Z,8.50
2018-10-21T19:42:43.300Z,7.87
2018-10-21T19:45:12.617Z,7.73
2018-10-21T19:47:41.599Z,8.20
2018-10-21T19:50:11.904Z,9.70
2018-10-21T19:52:41.230Z,9.90
2018-10-21T19:55:11.013Z,9.03
2018-10-21T19:57:39.955Z,10.07
2018-10-21T20:00:17.089Z,8.60
2018-10-21T20:02:45.891Z,10.83
2018-10-21T20:05:14.632Z,9.23
2018-10-21T20:07:43.187Z,8.50
2018-10-21T20:10:13.115Z,11.80
2018-10-21T20:12:41.860Z,9.33
2018-10-21T20:15:11.632Z,8.80
2018-10-21T20:17:40.448Z,9.10
2018-10-21T20:20:10.924Z,10.30
2018-10-21T20:22:39.411Z,10.57
2018-10-21T20:25:08.933Z,9.03
2018-10-21T20:27:37.596Z,8.83
2018-10-21T20:30:07.583Z,8.30
2018-10-21T20:32:36.111Z,10.07
2018-10-21T20:35:05.421Z,8.83
2018-10-21T20:37:34.107Z,9.07
2018-10-21T20:40:02.722Z,6.97
2018-10-21T20:42:31.289Z,7.53
2018-10-21T20:44:59.807Z,8.53
2018-10-21T20:47:28.156Z,7.67
2018-10-21T20:49:57.727Z,8.00
2018-10-21T20:52:32.704Z,8.40
2018-10-21T20:55:02.620Z,8.90
2018-10-21T20:57:31.775Z,11.17
2018-10-21T21:00:00.193Z,7.40
2018-10-21T21:02:28.556Z,9.70
2018-10-21T21:07:37.500Z,8.10
2018-10-21T21:10:06.942Z,7.73
2018-10-21T21:12:35.479Z,9.77
2018-10-21T21:15:05.171Z,8.30
2018-10-21T21:17:33.585Z,6.53
2018-10-21T21:20:02.328Z,6.60
2018-10-21T21:22:30.992Z,8.13
2018-10-21T21:24:59.411Z,7.43
2018-10-21T21:27:27.839Z,7.87
2018-10-21T21:29:56.602Z,8.60
2018-10-21T21:32:24.950Z,8.50
2018-10-21T21:34:53.400Z,9.37
2018-10-21T21:37:22.352Z,9.27
2018-10-21T21:39:55.351Z,7.40
2018-10-21T21:42:23.683Z,7.43
2018-10-21T21:44:52.075Z,6.20
2018-10-21T21:47:20.595Z,6.77
2018-10-21T21:49:49.239Z,8.30
2018-10-21T21:52:17.703Z,8.77
2018-10-21T21:54:46.039Z,7.30
2018-10-21T21:59:53.985Z,6.30
2018-10-21T22:02:22.996Z,7.20
2018-10-21T22:04:52.364Z,8.03
2018-10-21T22:07:21.399Z,8.67
2018-10-21T22:09:49.815Z,9.30
2018-10-21T22:12:18.433Z,8.67
2018-10-21T22:14:46.684Z,7.07
2018-10-21T22:17:15.050Z,6.90
2018-10-21T22:19:43.575Z,7.53
2018-10-21T22:22:13.280Z,7.33
2018-10-21T22:24:41.623Z,6.23
2018-10-21T22:27:10.440Z,7.77
2018-10-21T22:29:39.417Z,7.80
2018-10-21T22:32:10.008Z,12.37
2018-10-21T22:34:38.402Z,7.73
2018-10-21T22:37:06.915Z,7.33
2018-10-21T22:39:35.280Z,8.27
2018-10-21T22:42:03.696Z,8.83
2018-10-21T22:44:32.099Z,8.70
2018-10-21T22:47:00.534Z,9.77
2018-10-21T22:49:28.903Z,5.57
2018-10-21T22:51:59.891Z,7.13
2018-10-21T22:54:28.556Z,6.27
2018-10-21T22:56:56.983Z,6.53
2018-10-21T22:59:25.396Z,7.07
2018-10-21T23:01:59.476Z,8.07
2018-10-21T23:04:28.248Z,6.93
2018-10-21T23:06:58.247Z,6.50
2018-10-21T23:09:27.449Z,7.90
2018-10-21T23:11:55.807Z,8.40
2018-10-21T23:14:24.531Z,10.30
2018-10-21T23:16:52.908Z,7.90
2018-10-21T23:19:43.838Z,7.67
2018-10-21T23:22:18.430Z,8.00
2018-10-21T23:24:46.851Z,8.57
2018-10-21T23:27:15.230Z,10.30
2018-10-21T23:29:44.338Z,7.23
2018-10-21T23:32:13.365Z,9.13
2018-10-21T23:34:42.513Z,9.30
2018-10-21T23:37:10.994Z,9.77
2018-10-21T23:39:39.462Z,12.60
2018-10-21T23:42:11.441Z,12.83
2018-10-21T23:44:40.015Z,11.37
2018-10-21T23:47:08.892Z,11.10
2018-10-21T23:49:37.256Z,10.27
2018-10-21T23:52:06.439Z,8.67
2018-10-21T23:54:35.869Z,7.80
2018-10-21T23:57:07.216Z,7.53
2018-10-21T23:59:36.665Z,8.50
